sensor_id;sensor_type;location;lat;lon;timestamp;P1;durP1;ratioP1;P2;durP2;ratioP2
2868;SDS011;1442;47.448;8.582;2023-11-22T00:00:37;4.20;;;3.15;;
2868;SDS011;1442;47.448;8.582;2023-11-22T00:03:04;4.45;;;3.40;;
2868;SDS011;1442;47.448;8.582;2023-11-22T00:05:31;5.63;;;3.60;;
2868;SDS011;1442;47.448;8.582;2023-11-22T00:07:59;5.18;;;3.33;;
2868;SDS011;1442;47.448;8.582;2023-11-22T00:10:26;6.50;;;3.53;;
2868;SDS011;1442;47.448;8.582;2023-11-22T00:12:55;4.97;;;3.22;;
2868;SDS011;1442;47.448;8.582;2023-11-22T00:15:23;5.40;;;3.38;;
2868;SDS011;1442;47.448;8.582;2023-11-22T00:17:51;6.80;;;3.58;;
2868;SDS011;1442;47.448;8.582;2023-11-22T00:20:18;5.28;;;3.60;;
2868;SDS011;1442;47.448;8.582;2023-11-22T00:22:46;8.05;;;4.45;;
2868;SDS011;1442;47.448;8.582;2023-11-22T00:25:13;6.47;;;3.50;;
2868;SDS011;1442;47.448;8.582;2023-11-22T00:27:40;8.07;;;3.50;;
2868;SDS011;1442;47.448;8.582;2023-11-22T00:30:09;4.07;;;3.58;;
2868;SDS011;1442;47.448;8.582;2023-11-22T00:32:36;4.82;;;3.60;;
2868;SDS011;1442;47.448;8.582;2023-11-22T00:35:05;5.18;;;3.35;;
2868;SDS011;1442;47.448;8.582;2023-11-22T00:37:33;4.20;;;3.42;;
2868;SDS011;1442;47.448;8.582;2023-11-22T00:40:00;4.93;;;3.50;;
2868;SDS011;1442;47.448;8.582;2023-11-22T00:42:35;5.55;;;3.40;;
2868;SDS011;1442;47.448;8.582;2023-11-22T00:45:05;6.05;;;3.47;;
2868;SDS011;1442;47.448;8.582;2023-11-22T00:47:33;5.63;;;3.92;;
2868;SDS011;1442;47.448;8.582;2023-11-22T00:50:00;6.90;;;3.90;;
2868;SDS011;1442;47.448;8.582;2023-11-22T00:52:29;6.57;;;3.95;;
2868;SDS011;1442;47.448;8.582;2023-11-22T00:54:56;7.28;;;4.05;;
2868;SDS011;1442;47.448;8.582;2023-11-22T00:57:23;7.78;;;3.85;;
2868;SDS011;1442;47.448;8.582;2023-11-22T00:59:52;5.57;;;3.85;;
2868;SDS011;1442;47.448;8.582;2023-11-22T01:02:19;7.15;;;3.83;;
2868;SDS011;1442;47.448;8.582;2023-11-22T01:04:48;7.50;;;4.00;;
2868;SDS011;1442;47.448;8.582;2023-11-22T01:07:15;6.38;;;3.72;;
2868;SDS011;1442;47.448;8.582;2023-11-22T01:09:42;6.40;;;4.00;;
2868;SDS011;1442;47.448;8.582;2023-11-22T01:12:09;5.88;;;3.88;;
2868;SDS011;1442;47.448;8.582;2023-11-22T01:14:37;5.45;;;4.03;;
2868;SDS011;1442;47.448;8.582;2023-11-22T01:17:04;5.03;;;3.70;;
2868;SDS011;1442;47.448;8.582;2023-11-22T01:19:31;8.98;;;3.90;;
2868;SDS011;1442;47.448;8.582;2023-11-22T01:22:00;5.85;;;3.90;;
2868;SDS011;1442;47.448;8.582;2023-11-22T01:24:27;5.07;;;4.07;;
2868;SDS011;1442;47.448;8.582;2023-11-22T01:26:54;6.68;;;4.03;;
2868;SDS011;1442;47.448;8.582;2023-11-22T01:29:21;8.57;;;3.85;;
2868;SDS011;1442;47.448;8.582;2023-11-22T01:31:48;4.50;;;3.70;;
2868;SDS011;1442;47.448;8.582;2023-11-22T01:34:15;5.70;;;4.35;;
2868;SDS011;1442;47.448;8.582;2023-11-22T01:36:43;5.65;;;3.70;;
2868;SDS011;1442;47.448;8.582;2023-11-22T01:39:12;5.07;;;3.70;;
2868;SDS011;1442;47.448;8.582;2023-11-22T01:41:39;4.65;;;4.18;;
2868;SDS011;1442;47.448;8.582;2023-11-22T01:44:07;6.15;;;4.15;;
2868;SDS011;1442;47.448;8.582;2023-11-22T01:46:34;6.88;;;4.85;;
2868;SDS011;1442;47.448;8.582;2023-11-22T01:49:01;6.18;;;4.38;;
2868;SDS011;1442;47.448;8.582;2023-11-22T01:51:28;7.78;;;4.50;;
2868;SDS011;1442;47.448;8.582;2023-11-22T01:53:56;7.70;;;4.60;;
2868;SDS011;1442;47.448;8.582;2023-11-22T01:56:26;7.38;;;4.53;;
2868;SDS011;1442;47.448;8.582;2023-11-22T01:58:54;8.13;;;4.35;;
2868;SDS011;1442;47.448;8.582;2023-11-22T02:01:21;5.90;;;4.15;;
2868;SDS011;1442;47.448;8.582;2023-11-22T02:03:49;11.00;;;4.90;;
2868;SDS011;1442;47.448;8.582;2023-11-22T02:06:17;9.35;;;4.13;;
2868;SDS011;1442;47.448;8.582;2023-11-22T02:08:44;5.93;;;4.55;;
2868;SDS011;1442;47.448;8.582;2023-11-22T02:11:11;7.43;;;5.18;;
2868;SDS011;1442;47.448;8.582;2023-11-22T02:13:40;7.38;;;4.55;;
2868;SDS011;1442;47.448;8.582;2023-11-22T02:16:07;5.97;;;4.65;;
2868;SDS011;1442;47.448;8.582;2023-11-22T02:18:34;7.28;;;4.93;;
2868;SDS011;1442;47.448;8.582;2023-11-22T02:21:02;8.68;;;5.05;;
2868;SDS011;1442;47.448;8.582;2023-11-22T02:23:30;9.30;;;5.55;;
2868;SDS011;1442;47.448;8.582;2023-11-22T02:25:57;9.23;;;5.25;;
2868;SDS011;1442;47.448;8.582;2023-11-22T02:28:25;6.80;;;5.40;;
2868;SDS011;1442;47.448;8.582;2023-11-22T02:30:52;8.02;;;5.35;;
2868;SDS011;1442;47.448;8.582;2023-11-22T02:33:20;11.90;;;5.57;;
2868;SDS011;1442;47.448;8.582;2023-11-22T02:35:47;7.72;;;4.95;;
2868;SDS011;1442;47.448;8.582;2023-11-22T02:38:15;9.50;;;5.50;;
2868;SDS011;1442;47.448;8.582;2023-11-22T02:40:44;9.90;;;4.47;;
2868;SDS011;1442;47.448;8.582;2023-11-22T02:43:11;9.00;;;5.03;;
2868;SDS011;1442;47.448;8.582;2023-11-22T02:45:38;8.40;;;5.20;;
2868;SDS011;1442;47.448;8.582;2023-11-22T02:48:05;7.72;;;5.22;;
2868;SDS011;1442;47.448;8.582;2023-11-22T02:50:34;13.95;;;6.00;;
2868;SDS011;1442;47.448;8.582;2023-11-22T02:53:02;7.45;;;5.18;;
2868;SDS011;1442;47.448;8.582;2023-11-22T02:55:29;6.43;;;5.03;;
2868;SDS011;1442;47.448;8.582;2023-11-22T02:57:58;8.55;;;5.65;;
2868;SDS011;1442;47.448;8.582;2023-11-22T03:00:25;7.85;;;5.47;;
2868;SDS011;1442;47.448;8.582;2023-11-22T03:02:54;9.15;;;6.05;;
2868;SDS011;1442;47.448;8.582;2023-11-22T03:05:22;9.20;;;5.03;;
2868;SDS011;1442;47.448;8.582;2023-11-22T03:07:49;7.22;;;5.32;;
2868;SDS011;1442;47.448;8.582;2023-11-22T03:10:16;7.95;;;5.18;;
2868;SDS011;1442;47.448;8.582;2023-11-22T03:12:44;9.20;;;5.15;;
2868;SDS011;1442;47.448;8.582;2023-11-22T03:15:12;9.48;;;5.38;;
2868;SDS011;1442;47.448;8.582;2023-11-22T03:17:39;6.70;;;5.10;;
2868;SDS011;1442;47.448;8.582;2023-11-22T03:20:07;6.07;;;4.78;;
2868;SDS011;1442;47.448;8.582;2023-11-22T03:22:36;6.75;;;4.88;;
2868;SDS011;1442;47.448;8.582;2023-11-22T03:25:03;7.78;;;5.35;;
2868;SDS011;1442;47.448;8.582;2023-11-22T03:27:30;8.85;;;5.93;;
2868;SDS011;1442;47.448;8.582;2023-11-22T03:29:59;5.88;;;4.78;;
2868;SDS011;1442;47.448;8.582;2023-11-22T03:32:27;8.18;;;5.57;;
2868;SDS011;1442;47.448;8.582;2023-11-22T03:34:55;7.95;;;5.35;;
2868;SDS011;1442;47.448;8.582;2023-11-22T03:37:22;7.80;;;6.32;;
2868;SDS011;1442;47.448;8.582;2023-11-22T03:39:49;9.32;;;6.70;;
2868;SDS011;1442;47.448;8.582;2023-11-22T03:42:17;8.20;;;5.82;;
2868;SDS011;1442;47.448;8.582;2023-11-22T03:44:44;7.47;;;5.07;;
2868;SDS011;1442;47.448;8.582;2023-11-22T03:47:11;9.00;;;5.60;;
2868;SDS011;1442;47.448;8.582;2023-11-22T03:49:40;8.80;;;5.20;;
2868;SDS011;1442;47.448;8.582;2023-11-22T03:52:08;8.43;;;5.63;;
2868;SDS011;1442;47.448;8.582;2023-11-22T03:54:35;10.82;;;5.32;;
2868;SDS011;1442;47.448;8.582;2023-11-22T03:57:02;10.27;;;5.60;;
2868;SDS011;1442;47.448;8.582;2023-11-22T03:59:29;6.60;;;5.70;;
2868;SDS011;1442;47.448;8.582;2023-11-22T04:01:57;10.75;;;6.07;;
2868;SDS011;1442;47.448;8.582;2023-11-22T04:04:24;7.78;;;6.05;;
2868;SDS011;1442;47.448;8.582;2023-11-22T04:06:52;7.82;;;5.78;;
2868;SDS011;1442;47.448;8.582;2023-11-22T04:09:19;7.85;;;5.57;;
2868;SDS011;1442;47.448;8.582;2023-11-22T04:11:47;7.43;;;5.30;;
2868;SDS011;1442;47.448;8.582;2023-11-22T04:14:14;8.98;;;5.72;;
2868;SDS011;1442;47.448;8.582;2023-11-22T04:16:41;10.75;;;5.70;;
2868;SDS011;1442;47.448;8.582;2023-11-22T04:19:08;9.13;;;5.68;;
2868;SDS011;1442;47.448;8.582;2023-11-22T04:21:36;10.75;;;5.38;;
2868;SDS011;1442;47.448;8.582;2023-11-22T04:24:05;8.45;;;5.53;;
2868;SDS011;1442;47.448;8.582;2023-11-22T04:26:32;8.63;;;5.03;;
2868;SDS011;1442;47.448;8.582;2023-11-22T04:28:59;6.03;;;4.30;;
2868;SDS011;1442;47.448;8.582;2023-11-22T04:31:26;6.57;;;4.90;;
2868;SDS011;1442;47.448;8.582;2023-11-22T04:33:53;6.53;;;4.45;;
2868;SDS011;1442;47.448;8.582;2023-11-22T04:36:22;9.55;;;4.35;;
2868;SDS011;1442;47.448;8.582;2023-11-22T04:38:49;4.90;;;3.97;;
2868;SDS011;1442;47.448;8.582;2023-11-22T04:41:18;8.48;;;4.85;;
2868;SDS011;1442;47.448;8.582;2023-11-22T04:43:45;8.40;;;4.55;;
2868;SDS011;1442;47.448;8.582;2023-11-22T04:46:12;7.60;;;4.85;;
2868;SDS011;1442;47.448;8.582;2023-11-22T04:48:39;9.18;;;5.30;;
2868;SDS011;1442;47.448;8.582;2023-11-22T04:51:10;6.72;;;5.13;;
2868;SDS011;1442;47.448;8.582;2023-11-22T04:53:37;8.73;;;4.70;;
2868;SDS011;1442;47.448;8.582;2023-11-22T04:56:04;12.27;;;4.28;;
2868;SDS011;1442;47.448;8.582;2023-11-22T04:58:33;6.50;;;4.32;;
2868;SDS011;1442;47.448;8.582;2023-11-22T05:01:00;9.13;;;5.28;;
2868;SDS011;1442;47.448;8.582;2023-11-22T05:03:28;7.53;;;4.65;;
2868;SDS011;1442;47.448;8.582;2023-11-22T05:05:55;6.47;;;4.50;;
2868;SDS011;1442;47.448;8.582;2023-11-22T05:08:22;8.13;;;4.55;;
2868;SDS011;1442;47.448;8.582;2023-11-22T05:10:50;7.93;;;4.68;;
2868;SDS011;1442;47.448;8.582;2023-11-22T05:13:17;6.30;;;4.70;;
2868;SDS011;1442;47.448;8.582;2023-11-22T05:15:46;6.45;;;4.68;;
2868;SDS011;1442;47.448;8.582;2023-11-22T05:18:13;7.93;;;4.28;;
2868;SDS011;1442;47.448;8.582;2023-11-22T05:20:40;12.52;;;5.18;;
2868;SDS011;1442;47.448;8.582;2023-11-22T05:23:07;6.88;;;4.15;;
2868;SDS011;1442;47.448;8.582;2023-11-22T05:25:35;6.93;;;4.47;;
2868;SDS011;1442;47.448;8.582;2023-11-22T05:28:02;6.55;;;4.10;;
2868;SDS011;1442;47.448;8.582;2023-11-22T05:30:29;6.75;;;4.60;;
2868;SDS011;1442;47.448;8.582;2023-11-22T05:32:58;8.02;;;5.13;;
2868;SDS011;1442;47.448;8.582;2023-11-22T05:35:25;7.47;;;5.10;;
2868;SDS011;1442;47.448;8.582;2023-11-22T05:37:52;7.72;;;4.40;;
2868;SDS011;1442;47.448;8.582;2023-11-22T05:40:19;7.22;;;4.72;;
2868;SDS011;1442;47.448;8.582;2023-11-22T05:42:46;9.50;;;5.10;;
2868;SDS011;1442;47.448;8.582;2023-11-22T05:45:13;7.05;;;4.53;;
2868;SDS011;1442;47.448;8.582;2023-11-22T05:47:41;11.90;;;4.90;;
2868;SDS011;1442;47.448;8.582;2023-11-22T05:50:09;7.47;;;4.40;;
2868;SDS011;1442;47.448;8.582;2023-11-22T05:52:37;9.23;;;4.32;;
2868;SDS011;1442;47.448;8.582;2023-11-22T05:55:04;9.90;;;4.53;;
2868;SDS011;1442;47.448;8.582;2023-11-22T05:57:33;10.98;;;4.30;;
2868;SDS011;1442;47.448;8.582;2023-11-22T06:00:00;7.25;;;4.53;;
2868;SDS011;1442;47.448;8.582;2023-11-22T06:02:28;7.13;;;4.80;;
2868;SDS011;1442;47.448;8.582;2023-11-22T06:04:55;7.95;;;5.13;;
2868;SDS011;1442;47.448;8.582;2023-11-22T06:07:23;10.30;;;5.43;;
2868;SDS011;1442;47.448;8.582;2023-11-22T06:09:51;9.55;;;5.57;;
2868;SDS011;1442;47.448;8.582;2023-11-22T06:12:18;9.57;;;5.65;;
2868;SDS011;1442;47.448;8.582;2023-11-22T06:14:45;7.57;;;5.28;;
2868;SDS011;1442;47.448;8.582;2023-11-22T06:17:12;7.72;;;5.30;;
2868;SDS011;1442;47.448;8.582;2023-11-22T06:19:40;8.85;;;5.45;;
2868;SDS011;1442;47.448;8.582;2023-11-22T06:22:07;9.55;;;6.18;;
2868;SDS011;1442;47.448;8.582;2023-11-22T06:24:35;10.13;;;6.47;;
2868;SDS011;1442;47.448;8.582;2023-11-22T06:27:03;5.50;;;4.32;;
2868;SDS011;1442;47.448;8.582;2023-11-22T06:29:30;7.53;;;4.50;;
2868;SDS011;1442;47.448;8.582;2023-11-22T06:31:57;9.00;;;4.72;;
2868;SDS011;1442;47.448;8.582;2023-11-22T06:34:24;4.75;;;4.07;;
2868;SDS011;1442;47.448;8.582;2023-11-22T06:36:52;7.35;;;4.55;;
2868;SDS011;1442;47.448;8.582;2023-11-22T06:39:19;6.30;;;4.40;;
2868;SDS011;1442;47.448;8.582;2023-11-22T06:41:49;5.57;;;4.60;;
2868;SDS011;1442;47.448;8.582;2023-11-22T06:44:16;9.57;;;4.95;;
2868;SDS011;1442;47.448;8.582;2023-11-22T06:46:43;7.75;;;4.70;;
2868;SDS011;1442;47.448;8.582;2023-11-22T06:49:10;5.43;;;3.88;;
2868;SDS011;1442;47.448;8.582;2023-11-22T06:51:37;4.45;;;2.75;;
2868;SDS011;1442;47.448;8.582;2023-11-22T06:54:05;3.45;;;2.25;;
2868;SDS011;1442;47.448;8.582;2023-11-22T06:56:32;7.63;;;2.58;;
2868;SDS011;1442;47.448;8.582;2023-11-22T06:59:00;3.67;;;1.92;;
2868;SDS011;1442;47.448;8.582;2023-11-22T07:01:28;2.10;;;1.80;;
2868;SDS011;1442;47.448;8.582;2023-11-22T07:03:55;2.25;;;1.80;;
2868;SDS011;1442;47.448;8.582;2023-11-22T07:06:22;2.92;;;1.50;;
2868;SDS011;1442;47.448;8.582;2023-11-22T07:08:49;4.07;;;1.58;;
2868;SDS011;1442;47.448;8.582;2023-11-22T07:11:23;2.67;;;1.48;;
2868;SDS011;1442;47.448;8.582;2023-11-22T07:13:51;1.42;;;1.33;;
2868;SDS011;1442;47.448;8.582;2023-11-22T07:16:19;1.88;;;1.30;;
2868;SDS011;1442;47.448;8.582;2023-11-22T07:18:47;1.50;;;1.40;;
2868;SDS011;1442;47.448;8.582;2023-11-22T07:21:14;1.25;;;1.13;;
2868;SDS011;1442;47.448;8.582;2023-11-22T07:23:41;1.83;;;1.50;;
2868;SDS011;1442;47.448;8.582;2023-11-22T07:26:10;1.92;;;1.48;;
2868;SDS011;1442;47.448;8.582;2023-11-22T07:28:39;3.58;;;1.33;;
2868;SDS011;1442;47.448;8.582;2023-11-22T07:31:06;1.67;;;1.58;;
2868;SDS011;1442;47.448;8.582;2023-11-22T07:33:35;1.88;;;1.38;;
2868;SDS011;1442;47.448;8.582;2023-11-22T07:36:03;3.15;;;1.73;;
2868;SDS011;1442;47.448;8.582;2023-11-22T07:38:31;2.33;;;1.63;;
2868;SDS011;1442;47.448;8.582;2023-11-22T07:40:58;1.80;;;1.60;;
2868;SDS011;1442;47.448;8.582;2023-11-22T07:43:26;4.68;;;1.65;;
2868;SDS011;1442;47.448;8.582;2023-11-22T07:45:53;1.90;;;1.60;;
2868;SDS011;1442;47.448;8.582;2023-11-22T07:48:20;4.85;;;2.28;;
2868;SDS011;1442;47.448;8.582;2023-11-22T07:50:49;1.75;;;1.52;;
2868;SDS011;1442;47.448;8.582;2023-11-22T07:53:18;1.60;;;1.50;;
2868;SDS011;1442;47.448;8.582;2023-11-22T07:55:45;4.15;;;1.73;;
2868;SDS011;1442;47.448;8.582;2023-11-22T07:58:12;2.63;;;1.92;;
2868;SDS011;1442;47.448;8.582;2023-11-22T08:00:40;2.42;;;2.10;;
2868;SDS011;1442;47.448;8.582;2023-11-22T08:03:08;2.22;;;1.58;;
2868;SDS011;1442;47.448;8.582;2023-11-22T08:05:35;1.52;;;1.42;;
2868;SDS011;1442;47.448;8.582;2023-11-22T08:08:06;3.33;;;1.83;;
2868;SDS011;1442;47.448;8.582;2023-11-22T08:10:34;1.50;;;1.40;;
2868;SDS011;1442;47.448;8.582;2023-11-22T08:13:01;2.70;;;1.83;;
2868;SDS011;1442;47.448;8.582;2023-11-22T08:15:28;1.55;;;1.45;;
2868;SDS011;1442;47.448;8.582;2023-11-22T08:17:57;2.05;;;1.67;;
2868;SDS011;1442;47.448;8.582;2023-11-22T08:20:25;1.85;;;1.58;;
2868;SDS011;1442;47.448;8.582;2023-11-22T08:22:52;2.58;;;1.60;;
2868;SDS011;1442;47.448;8.582;2023-11-22T08:25:21;1.50;;;1.40;;
2868;SDS011;1442;47.448;8.582;2023-11-22T08:27:48;1.92;;;1.63;;
2868;SDS011;1442;47.448;8.582;2023-11-22T08:30:15;2.08;;;1.40;;
2868;SDS011;1442;47.448;8.582;2023-11-22T08:32:43;1.55;;;1.45;;
2868;SDS011;1442;47.448;8.582;2023-11-22T08:35:13;1.40;;;1.30;;
2868;SDS011;1442;47.448;8.582;2023-11-22T08:37:40;1.95;;;1.70;;
2868;SDS011;1442;47.448;8.582;2023-11-22T08:40:08;1.85;;;1.45;;
2868;SDS011;1442;47.448;8.582;2023-11-22T08:42:37;1.83;;;1.50;;
2868;SDS011;1442;47.448;8.582;2023-11-22T08:45:06;2.60;;;1.20;;
2868;SDS011;1442;47.448;8.582;2023-11-22T08:47:36;2.25;;;1.52;;
2868;SDS011;1442;47.448;8.582;2023-11-22T08:50:05;1.30;;;1.20;;
2868;SDS011;1442;47.448;8.582;2023-11-22T08:52:33;4.03;;;1.30;;
2868;SDS011;1442;47.448;8.582;2023-11-22T08:55:01;1.65;;;1.30;;
2868;SDS011;1442;47.448;8.582;2023-11-22T08:57:28;2.13;;;1.35;;
2868;SDS011;1442;47.448;8.582;2023-11-22T08:59:57;2.10;;;1.00;;
2868;SDS011;1442;47.448;8.582;2023-11-22T09:02:31;1.58;;;1.20;;
2868;SDS011;1442;47.448;8.582;2023-11-22T09:04:58;2.30;;;1.30;;
2868;SDS011;1442;47.448;8.582;2023-11-22T09:07:25;1.40;;;1.30;;
2868;SDS011;1442;47.448;8.582;2023-11-22T09:09:53;1.67;;;1.58;;
2868;SDS011;1442;47.448;8.582;2023-11-22T09:12:20;2.15;;;1.55;;
2868;SDS011;1442;47.448;8.582;2023-11-22T09:14:47;4.53;;;1.20;;
2868;SDS011;1442;47.448;8.582;2023-11-22T09:17:16;1.40;;;1.30;;
2868;SDS011;1442;47.448;8.582;2023-11-22T09:19:43;1.88;;;1.13;;
2868;SDS011;1442;47.448;8.582;2023-11-22T09:22:10;1.30;;;1.20;;
2868;SDS011;1442;47.448;8.582;2023-11-22T09:24:38;1.15;;;1.05;;
2868;SDS011;1442;47.448;8.582;2023-11-22T09:27:05;1.40;;;1.30;;
2868;SDS011;1442;47.448;8.582;2023-11-22T09:29:35;1.20;;;1.10;;
2868;SDS011;1442;47.448;8.582;2023-11-22T09:32:02;2.05;;;1.27;;
2868;SDS011;1442;47.448;8.582;2023-11-22T09:34:32;1.20;;;1.05;;
2868;SDS011;1442;47.448;8.582;2023-11-22T09:37:00;1.52;;;1.42;;
2868;SDS011;1442;47.448;8.582;2023-11-22T09:39:27;1.80;;;1.38;;
2868;SDS011;1442;47.448;8.582;2023-11-22T09:41:55;2.30;;;1.10;;
2868;SDS011;1442;47.448;8.582;2023-11-22T09:44:22;1.55;;;1.45;;
2868;SDS011;1442;47.448;8.582;2023-11-22T09:46:49;20.08;;;2.40;;
2868;SDS011;1442;47.448;8.582;2023-11-22T09:49:19;12.63;;;1.75;;
2868;SDS011;1442;47.448;8.582;2023-11-22T09:51:49;11.40;;;1.38;;
2868;SDS011;1442;47.448;8.582;2023-11-22T09:54:18;1.60;;;1.20;;
2868;SDS011;1442;47.448;8.582;2023-11-22T09:56:48;1.80;;;1.40;;
2868;SDS011;1442;47.448;8.582;2023-11-22T09:59:16;1.27;;;1.17;;
2868;SDS011;1442;47.448;8.582;2023-11-22T10:01:48;1.30;;;1.20;;
2868;SDS011;1442;47.448;8.582;2023-11-22T10:04:17;1.52;;;1.30;;
2868;SDS011;1442;47.448;8.582;2023-11-22T10:06:44;1.35;;;1.00;;
2868;SDS011;1442;47.448;8.582;2023-11-22T10:09:13;1.52;;;1.20;;
2868;SDS011;1442;47.448;8.582;2023-11-22T10:11:40;1.45;;;1.35;;
2868;SDS011;1442;47.448;8.582;2023-11-22T10:14:08;1.42;;;1.10;;
2868;SDS011;1442;47.448;8.582;2023-11-22T10:16:35;1.20;;;1.10;;
2868;SDS011;1442;47.448;8.582;2023-11-22T10:19:03;3.85;;;1.67;;
2868;SDS011;1442;47.448;8.582;2023-11-22T10:21:32;1.70;;;1.23;;
2868;SDS011;1442;47.448;8.582;2023-11-22T10:24:00;1.63;;;1.52;;
2868;SDS011;1442;47.448;8.582;2023-11-22T10:26:29;1.40;;;1.30;;
2868;SDS011;1442;47.448;8.582;2023-11-22T10:28:56;1.42;;;1.33;;
2868;SDS011;1442;47.448;8.582;2023-11-22T10:31:24;2.88;;;1.80;;
2868;SDS011;1442;47.448;8.582;2023-11-22T10:33:52;1.70;;;1.60;;
2868;SDS011;1442;47.448;8.582;2023-11-22T10:36:22;2.60;;;1.65;;
2868;SDS011;1442;47.448;8.582;2023-11-22T10:38:50;2.08;;;1.60;;
2868;SDS011;1442;47.448;8.582;2023-11-22T10:41:17;2.50;;;1.85;;
2868;SDS011;1442;47.448;8.582;2023-11-22T10:43:48;1.40;;;1.30;;
2868;SDS011;1442;47.448;8.582;2023-11-22T10:46:17;2.00;;;1.33;;
2868;SDS011;1442;47.448;8.582;2023-11-22T10:48:46;3.50;;;1.85;;
2868;SDS011;1442;47.448;8.582;2023-11-22T10:51:13;3.67;;;1.40;;
2868;SDS011;1442;47.448;8.582;2023-11-22T10:53:43;2.60;;;1.80;;
2868;SDS011;1442;47.448;8.582;2023-11-22T10:56:14;1.70;;;1.60;;
2868;SDS011;1442;47.448;8.582;2023-11-22T10:58:45;1.58;;;1.33;;
2868;SDS011;1442;47.448;8.582;2023-11-22T11:01:15;1.45;;;1.30;;
2868;SDS011;1442;47.448;8.582;2023-11-22T11:03:45;2.75;;;1.77;;
2868;SDS011;1442;47.448;8.582;2023-11-22T11:06:16;3.60;;;1.88;;
2868;SDS011;1442;47.448;8.582;2023-11-22T11:08:46;2.47;;;2.00;;
2868;SDS011;1442;47.448;8.582;2023-11-22T11:11:14;2.53;;;1.70;;
2868;SDS011;1442;47.448;8.582;2023-11-22T11:13:41;3.45;;;1.58;;
2868;SDS011;1442;47.448;8.582;2023-11-22T11:16:08;4.90;;;2.08;;
2868;SDS011;1442;47.448;8.582;2023-11-22T11:18:37;3.33;;;1.75;;
2868;SDS011;1442;47.448;8.582;2023-11-22T11:21:07;1.52;;;1.42;;
2868;SDS011;1442;47.448;8.582;2023-11-22T11:23:37;1.83;;;1.65;;
2868;SDS011;1442;47.448;8.582;2023-11-22T11:26:08;2.65;;;1.70;;
2868;SDS011;1442;47.448;8.582;2023-11-22T11:28:41;4.88;;;2.88;;
2868;SDS011;1442;47.448;8.582;2023-11-22T11:31:08;4.03;;;2.33;;
2868;SDS011;1442;47.448;8.582;2023-11-22T11:33:52;3.97;;;2.50;;
2868;SDS011;1442;47.448;8.582;2023-11-22T11:36:21;3.90;;;1.65;;
2868;SDS011;1442;47.448;8.582;2023-11-22T11:38:48;3.90;;;1.80;;
2868;SDS011;1442;47.448;8.582;2023-11-22T11:41:15;5.10;;;1.88;;
2868;SDS011;1442;47.448;8.582;2023-11-22T11:43:43;3.90;;;2.67;;
2868;SDS011;1442;47.448;8.582;2023-11-22T11:46:11;3.30;;;2.20;;
2868;SDS011;1442;47.448;8.582;2023-11-22T11:48:43;19.83;;;6.80;;
2868;SDS011;1442;47.448;8.582;2023-11-22T11:53:37;9.60;;;3.05;;
2868;SDS011;1442;47.448;8.582;2023-11-22T11:56:05;4.93;;;1.88;;
2868;SDS011;1442;47.448;8.582;2023-11-22T11:58:33;9.18;;;2.10;;
2868;SDS011;1442;47.448;8.582;2023-11-22T12:01:01;4.68;;;1.98;;
2868;SDS011;1442;47.448;8.582;2023-11-22T12:03:28;1.85;;;1.60;;
2868;SDS011;1442;47.448;8.582;2023-11-22T12:05:56;4.07;;;2.00;;
2868;SDS011;1442;47.448;8.582;2023-11-22T12:08:23;6.25;;;2.30;;
2868;SDS011;1442;47.448;8.582;2023-11-22T12:10:55;3.35;;;1.80;;
2868;SDS011;1442;47.448;8.582;2023-11-22T12:13:24;7.30;;;1.95;;
2868;SDS011;1442;47.448;8.582;2023-11-22T12:15:52;4.72;;;2.50;;
2868;SDS011;1442;47.448;8.582;2023-11-22T12:18:19;5.47;;;1.75;;
2868;SDS011;1442;47.448;8.582;2023-11-22T12:20:53;3.08;;;1.73;;
2868;SDS011;1442;47.448;8.582;2023-11-22T12:23:23;4.28;;;1.55;;
2868;SDS011;1442;47.448;8.582;2023-11-22T12:25:53;2.55;;;1.60;;
2868;SDS011;1442;47.448;8.582;2023-11-22T12:28:21;2.00;;;1.80;;
2868;SDS011;1442;47.448;8.582;2023-11-22T12:30:48;2.08;;;1.63;;
2868;SDS011;1442;47.448;8.582;2023-11-22T12:33:16;1.58;;;1.45;;
2868;SDS011;1442;47.448;8.582;2023-11-22T12:35:44;2.47;;;2.05;;
2868;SDS011;1442;47.448;8.582;2023-11-22T12:38:11;4.45;;;1.70;;
2868;SDS011;1442;47.448;8.582;2023-11-22T12:40:44;3.60;;;1.65;;
2868;SDS011;1442;47.448;8.582;2023-11-22T12:43:12;2.78;;;2.10;;
2868;SDS011;1442;47.448;8.582;2023-11-22T12:45:40;2.33;;;1.73;;
2868;SDS011;1442;47.448;8.582;2023-11-22T12:48:20;3.47;;;1.92;;
2868;SDS011;1442;47.448;8.582;2023-11-22T12:50:48;2.88;;;1.83;;
2868;SDS011;1442;47.448;8.582;2023-11-22T12:53:15;4.13;;;2.00;;
2868;SDS011;1442;47.448;8.582;2023-11-22T12:55:45;2.10;;;1.83;;
2868;SDS011;1442;47.448;8.582;2023-11-22T12:58:14;7.85;;;1.75;;
2868;SDS011;1442;47.448;8.582;2023-11-22T13:00:41;2.75;;;2.28;;
2868;SDS011;1442;47.448;8.582;2023-11-22T13:03:09;5.68;;;1.95;;
2868;SDS011;1442;47.448;8.582;2023-11-22T13:05:36;1.95;;;1.75;;
2868;SDS011;1442;47.448;8.582;2023-11-22T13:08:03;3.25;;;1.80;;
2868;SDS011;1442;47.448;8.582;2023-11-22T13:10:31;2.17;;;1.70;;
2868;SDS011;1442;47.448;8.582;2023-11-22T13:12:59;7.35;;;1.90;;
2868;SDS011;1442;47.448;8.582;2023-11-22T13:15:27;5.43;;;2.10;;
2868;SDS011;1442;47.448;8.582;2023-11-22T13:17:55;5.28;;;2.53;;
2868;SDS011;1442;47.448;8.582;2023-11-22T13:20:22;6.07;;;2.45;;
2868;SDS011;1442;47.448;8.582;2023-11-22T13:22:51;4.20;;;2.00;;
2868;SDS011;1442;47.448;8.582;2023-11-22T13:25:18;2.92;;;2.17;;
2868;SDS011;1442;47.448;8.582;2023-11-22T13:27:46;4.13;;;2.15;;
2868;SDS011;1442;47.448;8.582;2023-11-22T13:30:15;2.88;;;1.80;;
2868;SDS011;1442;47.448;8.582;2023-11-22T13:32:45;2.38;;;1.88;;
2868;SDS011;1442;47.448;8.582;2023-11-22T13:35:12;3.42;;;2.10;;
2868;SDS011;1442;47.448;8.582;2023-11-22T13:37:42;4.32;;;1.70;;
2868;SDS011;1442;47.448;8.582;2023-11-22T13:40:10;2.08;;;1.90;;
2868;SDS011;1442;47.448;8.582;2023-11-22T13:42:39;4.38;;;2.20;;
2868;SDS011;1442;47.448;8.582;2023-11-22T13:45:07;2.90;;;1.88;;
2868;SDS011;1442;47.448;8.582;2023-11-22T13:47:35;6.65;;;2.00;;
2868;SDS011;1442;47.448;8.582;2023-11-22T13:50:03;2.33;;;1.80;;
2868;SDS011;1442;47.448;8.582;2023-11-22T13:52:31;3.30;;;1.98;;
2868;SDS011;1442;47.448;8.582;2023-11-22T13:54:59;4.05;;;2.00;;
2868;SDS011;1442;47.448;8.582;2023-11-22T13:57:28;3.72;;;1.73;;
2868;SDS011;1442;47.448;8.582;2023-11-22T13:59:57;2.63;;;1.95;;
2868;SDS011;1442;47.448;8.582;2023-11-22T14:02:24;6.68;;;2.08;;
2868;SDS011;1442;47.448;8.582;2023-11-22T14:04:53;4.85;;;2.00;;
2868;SDS011;1442;47.448;8.582;2023-11-22T14:07:20;3.47;;;2.10;;
2868;SDS011;1442;47.448;8.582;2023-11-22T14:09:47;5.22;;;2.17;;
2868;SDS011;1442;47.448;8.582;2023-11-22T14:12:15;4.18;;;2.38;;
2868;SDS011;1442;47.448;8.582;2023-11-22T14:14:43;3.40;;;1.95;;
2868;SDS011;1442;47.448;8.582;2023-11-22T14:17:11;2.65;;;2.05;;
2868;SDS011;1442;47.448;8.582;2023-11-22T14:19:39;3.03;;;2.20;;
2868;SDS011;1442;47.448;8.582;2023-11-22T14:22:07;3.00;;;2.35;;
2868;SDS011;1442;47.448;8.582;2023-11-22T14:24:34;5.63;;;2.83;;
2868;SDS011;1442;47.448;8.582;2023-11-22T14:27:04;4.18;;;2.50;;
2868;SDS011;1442;47.448;8.582;2023-11-22T14:29:31;5.60;;;2.80;;
2868;SDS011;1442;47.448;8.582;2023-11-22T14:31:58;3.17;;;2.45;;
2868;SDS011;1442;47.448;8.582;2023-11-22T14:34:25;3.50;;;2.70;;
2868;SDS011;1442;47.448;8.582;2023-11-22T14:36:53;3.40;;;2.47;;
2868;SDS011;1442;47.448;8.582;2023-11-22T14:39:21;3.88;;;2.35;;
2868;SDS011;1442;47.448;8.582;2023-11-22T14:41:48;3.95;;;2.83;;
2868;SDS011;1442;47.448;8.582;2023-11-22T14:44:16;2.88;;;2.47;;
2868;SDS011;1442;47.448;8.582;2023-11-22T14:46:44;3.95;;;3.00;;
2868;SDS011;1442;47.448;8.582;2023-11-22T14:49:11;4.55;;;2.70;;
2868;SDS011;1442;47.448;8.582;2023-11-22T14:51:39;3.45;;;2.60;;
2868;SDS011;1442;47.448;8.582;2023-11-22T14:54:06;4.93;;;3.20;;
2868;SDS011;1442;47.448;8.582;2023-11-22T14:56:35;3.33;;;2.63;;
2868;SDS011;1442;47.448;8.582;2023-11-22T14:59:03;5.22;;;3.17;;
2868;SDS011;1442;47.448;8.582;2023-11-22T15:01:31;4.47;;;3.20;;
2868;SDS011;1442;47.448;8.582;2023-11-22T15:03:58;3.35;;;2.63;;
2868;SDS011;1442;47.448;8.582;2023-11-22T15:06:25;4.47;;;3.15;;
2868;SDS011;1442;47.448;8.582;2023-11-22T15:08:52;5.28;;;2.95;;
2868;SDS011;1442;47.448;8.582;2023-11-22T15:11:19;7.68;;;2.55;;
2868;SDS011;1442;47.448;8.582;2023-11-22T15:13:48;5.13;;;2.92;;
2868;SDS011;1442;47.448;8.582;2023-11-22T15:16:16;4.40;;;3.08;;
2868;SDS011;1442;47.448;8.582;2023-11-22T15:18:44;7.40;;;2.95;;
2868;SDS011;1442;47.448;8.582;2023-11-22T15:21:11;4.82;;;2.90;;